バンギ の空港の天気 - METARとTAF

バンギ・ムポコ国際空港 ( FEFF / BGF ) - 中央アフリカ バンギ
飛行場実況気象(Metar)
観測時間04/25 15:00 WAT (04/25 14:00 UTC)
風向・風速西 4m/s
視程10km以上
天気現象
全天の8割程度の雲 雲底高度 790m
気温32℃
湿度56%
気圧1008hPa
METARFEFF 251400Z 28007KT 9999 BKN026 32/22 Q1008 NOSIG
過去の天気等 Google飛行場航空写真 Wunderground天気予報

過去48時間のMETAR

飛行場予報(TAF)
データがありません